createdAt,value
2023-01-02T00:01:53.727Z,63.80
2023-01-02T00:04:20.283Z,63.60
2023-01-02T00:06:46.834Z,63.40
2023-01-02T00:09:13.698Z,64.00
2023-01-02T00:11:40.346Z,63.60
2023-01-02T00:14:06.910Z,63.60
2023-01-02T00:16:33.491Z,63.80
2023-01-02T00:19:00.161Z,63.80
2023-01-02T00:21:26.813Z,63.60
2023-01-02T00:23:53.482Z,63.60
2023-01-02T00:26:20.103Z,63.40
2023-01-02T00:28:46.722Z,63.40
2023-01-02T00:31:13.848Z,63.50
2023-01-02T00:33:40.534Z,63.80
2023-01-02T00:36:08.271Z,63.90
2023-01-02T00:38:37.986Z,63.90
2023-01-02T00:41:06.966Z,63.70
2023-01-02T00:43:33.574Z,63.80
2023-01-02T00:46:01.831Z,63.60
2023-01-02T00:48:30.208Z,63.80
2023-01-02T00:50:56.797Z,63.60
2023-01-02T00:53:23.429Z,63.40
2023-01-02T00:55:50.167Z,63.40
2023-01-02T00:58:16.735Z,63.30
2023-01-02T01:00:43.373Z,63.40
2023-01-02T01:03:10.132Z,64.60
2023-01-02T01:05:38.260Z,63.40
2023-01-02T01:08:04.973Z,63.60
2023-01-02T01:10:31.552Z,63.60
2023-01-02T01:12:58.126Z,63.70
2023-01-02T01:15:24.697Z,63.50
2023-01-02T01:17:51.239Z,63.40
2023-01-02T01:20:17.826Z,63.50
2023-01-02T01:22:44.519Z,63.40
2023-01-02T01:25:11.177Z,63.50
2023-01-02T01:27:37.730Z,63.50
2023-01-02T01:30:05.135Z,63.70
2023-01-02T01:32:31.863Z,63.10
2023-01-02T01:34:58.399Z,63.40
2023-01-02T01:37:25.042Z,63.20
2023-01-02T01:39:56.362Z,62.90
2023-01-02T01:42:23.528Z,63.20
2023-01-02T01:44:54.841Z,63.50
2023-01-02T01:47:35.330Z,63.10
2023-01-02T01:50:07.420Z,63.40
2023-01-02T01:52:35.205Z,63.10
2023-01-02T01:55:10.052Z,63.50
2023-01-02T01:57:39.315Z,63.20
2023-01-02T02:00:06.188Z,63.20
2023-01-02T02:02:33.499Z,63.30
2023-01-02T02:05:01.799Z,63.30
2023-01-02T02:07:28.759Z,63.40
2023-01-02T02:09:58.626Z,63.10
2023-01-02T02:12:28.267Z,63.00
2023-01-02T02:14:55.176Z,63.10
2023-01-02T02:17:21.758Z,63.10
2023-01-02T02:19:54.638Z,63.10
2023-01-02T02:22:40.017Z,63.10
2023-01-02T02:25:25.484Z,63.40
2023-01-02T02:27:54.887Z,63.10
2023-01-02T02:30:22.732Z,63.20
2023-01-02T02:33:01.608Z,63.10
2023-01-02T02:35:34.365Z,63.40
2023-01-02T02:38:19.772Z,63.40
2023-01-02T02:40:52.143Z,63.00
2023-01-02T02:43:37.429Z,62.90
2023-01-02T02:46:30.565Z,62.70
2023-01-02T02:49:15.615Z,63.10
2023-01-02T02:51:48.733Z,63.10
2023-01-02T02:54:22.694Z,63.10
2023-01-02T02:56:49.802Z,63.20
2023-01-02T02:59:16.455Z,63.10
2023-01-02T03:01:43.089Z,63.60
2023-01-02T03:04:16.727Z,63.10
2023-01-02T03:06:56.036Z,63.10
2023-01-02T03:09:29.103Z,62.90
2023-01-02T03:12:19.685Z,63.80
2023-01-02T03:15:04.732Z,62.90
2023-01-02T03:17:41.816Z,63.00
2023-01-02T03:20:10.078Z,63.30
2023-01-02T03:22:38.908Z,63.10
2023-01-02T03:25:06.375Z,63.20
2023-01-02T03:27:34.675Z,63.00
2023-01-02T03:30:03.031Z,63.10
2023-01-02T03:32:43.579Z,62.90
2023-01-02T03:35:17.089Z,62.60
2023-01-02T03:37:45.970Z,62.70
2023-01-02T03:40:38.986Z,62.90
2023-01-02T03:43:25.503Z,62.70
2023-01-02T03:45:58.721Z,62.50
2023-01-02T03:48:35.465Z,62.80
2023-01-02T03:51:03.634Z,63.30
2023-01-02T03:53:31.854Z,63.10
2023-01-02T03:56:16.685Z,63.10
2023-01-02T03:58:47.330Z,62.90
2023-01-02T04:01:17.335Z,62.60
2023-01-02T04:03:47.191Z,62.70
2023-01-02T04:06:14.814Z,62.60
2023-01-02T04:08:45.147Z,62.70
2023-01-02T04:11:13.934Z,62.40
2023-01-02T04:13:42.343Z,62.40
2023-01-02T04:16:10.667Z,62.30
2023-01-02T04:18:46.186Z,63.20
2023-01-02T04:21:15.941Z,63.20
2023-01-02T04:23:46.708Z,63.50
2023-01-02T04:26:19.376Z,63.20
2023-01-02T04:28:46.019Z,62.90
2023-01-02T04:31:32.364Z,62.70
2023-01-02T04:34:00.403Z,62.70
2023-01-02T04:36:27.020Z,61.90
2023-01-02T04:38:53.682Z,63.20
2023-01-02T04:41:27.055Z,62.50
2023-01-02T04:43:54.609Z,62.30
2023-01-02T04:46:21.613Z,62.70
2023-01-02T04:48:48.238Z,63.10
2023-01-02T04:51:14.929Z,63.20
2023-01-02T04:53:41.535Z,63.20
2023-01-02T04:56:08.195Z,63.00
2023-01-02T04:58:34.812Z,63.10
2023-01-02T05:01:01.384Z,62.90
2023-01-02T05:03:28.104Z,62.60
2023-01-02T05:06:01.220Z,62.50
2023-01-02T05:08:30.887Z,62.10
2023-01-02T05:10:57.537Z,62.20
2023-01-02T05:13:24.121Z,62.80
2023-01-02T05:15:54.424Z,62.70
2023-01-02T05:18:21.056Z,63.00
2023-01-02T05:20:47.624Z,63.20
2023-01-02T05:23:32.922Z,63.10
2023-01-02T05:25:59.506Z,62.80
2023-01-02T05:28:26.095Z,62.90
2023-01-02T05:30:52.796Z,62.70
2023-01-02T05:33:19.419Z,62.40
2023-01-02T05:35:46.015Z,62.60
2023-01-02T05:38:12.579Z,62.10
2023-01-02T05:40:39.159Z,62.10
2023-01-02T05:43:05.730Z,62.60
2023-01-02T05:45:32.371Z,62.60
2023-01-02T05:47:58.959Z,62.80
2023-01-02T05:50:25.619Z,63.30
2023-01-02T05:52:52.180Z,62.90
2023-01-02T05:55:18.769Z,62.60
2023-01-02T05:57:45.376Z,62.30
2023-01-02T06:00:12.629Z,61.90
2023-01-02T06:02:39.432Z,62.30
2023-01-02T06:05:06.541Z,61.90
2023-01-02T06:07:33.207Z,62.40
2023-01-02T06:09:59.805Z,62.50
2023-01-02T06:12:26.364Z,62.00
2023-01-02T06:14:52.958Z,62.30
2023-01-02T06:17:20.362Z,62.20
2023-01-02T06:19:54.091Z,62.70
2023-01-02T06:22:20.960Z,63.10
2023-01-02T06:24:47.568Z,62.30
2023-01-02T06:27:14.145Z,62.30
2023-01-02T06:29:40.712Z,62.10
2023-01-02T06:32:07.445Z,62.10
2023-01-02T06:34:34.070Z,61.80
2023-01-02T06:37:04.538Z,62.30
2023-01-02T06:39:35.908Z,63.70
2023-01-02T06:42:02.492Z,62.80
2023-01-02T06:44:29.081Z,63.00
2023-01-02T06:46:55.634Z,62.40
2023-01-02T06:49:22.216Z,62.40
2023-01-02T06:51:48.802Z,61.80
2023-01-02T06:54:15.369Z,61.80
2023-01-02T06:56:41.920Z,62.00
2023-01-02T06:59:09.699Z,62.20
2023-01-02T07:01:36.372Z,61.80
2023-01-02T07:04:02.957Z,61.50
2023-01-02T07:06:29.507Z,62.90
2023-01-02T07:08:56.057Z,62.80
2023-01-02T07:11:23.698Z,62.90
2023-01-02T07:13:51.535Z,62.20
2023-01-02T07:16:19.005Z,61.90
2023-01-02T07:18:45.769Z,61.90
2023-01-02T07:21:14.049Z,61.90
2023-01-02T07:23:42.445Z,61.90
2023-01-02T07:26:09.409Z,62.10
2023-01-02T07:28:36.247Z,62.00
2023-01-02T07:31:04.396Z,61.60
2023-01-02T07:33:31.583Z,61.90
2023-01-02T07:35:59.201Z,61.80
2023-01-02T07:38:26.283Z,62.40
2023-01-02T07:40:52.875Z,61.90
2023-01-02T07:43:20.113Z,63.30
2023-01-02T07:45:50.353Z,63.90
2023-01-02T07:48:17.656Z,62.70
2023-01-02T07:50:44.405Z,62.60
2023-01-02T07:53:11.081Z,61.90
2023-01-02T07:55:37.630Z,62.30
2023-01-02T07:58:06.355Z,62.70
2023-01-02T08:00:32.960Z,62.70
2023-01-02T08:03:00.320Z,63.00
2023-01-02T08:05:26.894Z,62.30
2023-01-02T08:07:53.439Z,62.00
2023-01-02T08:10:20.060Z,62.10
2023-01-02T08:12:46.608Z,62.10
2023-01-02T08:15:13.265Z,62.30
2023-01-02T08:17:41.359Z,62.40
2023-01-02T08:20:08.795Z,63.00
2023-01-02T08:22:35.405Z,63.00
2023-01-02T08:25:02.291Z,62.90
2023-01-02T08:27:29.079Z,62.80
2023-01-02T08:29:55.679Z,62.50
2023-01-02T08:32:22.269Z,62.10
2023-01-02T08:34:48.862Z,62.00
2023-01-02T08:37:15.465Z,61.60
2023-01-02T08:39:42.020Z,61.50
2023-01-02T08:42:08.894Z,61.30
2023-01-02T08:44:37.931Z,61.30
2023-01-02T08:47:04.936Z,61.30
2023-01-02T08:49:31.491Z,61.30
2023-01-02T08:51:58.078Z,61.60
2023-01-02T08:54:24.962Z,61.40
2023-01-02T08:56:51.753Z,61.60
2023-01-02T08:59:18.349Z,61.10
2023-01-02T09:01:45.162Z,61.20
2023-01-02T09:04:13.104Z,61.20
2023-01-02T09:06:40.683Z,61.50
2023-01-02T09:09:12.164Z,61.50
2023-01-02T09:11:50.594Z,62.60
2023-01-02T09:14:18.473Z,62.50
2023-01-02T09:16:45.286Z,63.00
2023-01-02T09:19:11.918Z,62.80
2023-01-02T09:21:38.504Z,64.00
2023-01-02T09:24:05.691Z,64.20
2023-01-02T09:26:32.286Z,63.50
2023-01-02T09:28:58.914Z,63.10
2023-01-02T09:31:25.851Z,62.80
2023-01-02T09:33:53.249Z,62.70
2023-01-02T09:36:20.191Z,62.30
2023-01-02T09:38:50.550Z,62.50
2023-01-02T09:41:23.111Z,62.50
2023-01-02T09:43:52.233Z,62.90
2023-01-02T09:46:22.297Z,62.90
2023-01-02T09:48:48.916Z,62.50
2023-01-02T09:51:15.576Z,62.20
2023-01-02T09:53:42.213Z,62.30
2023-01-02T09:56:31.919Z,63.50
2023-01-02T09:59:04.066Z,62.90
2023-01-02T10:01:36.911Z,62.50
2023-01-02T10:04:18.701Z,62.20
2023-01-02T10:06:56.010Z,62.50
2023-01-02T10:09:27.584Z,62.80
2023-01-02T10:12:14.013Z,62.10
2023-01-02T10:14:49.698Z,61.70
2023-01-02T10:17:17.406Z,61.80
2023-01-02T10:19:48.606Z,61.50
2023-01-02T10:22:24.074Z,61.70
2023-01-02T10:24:53.379Z,62.00
2023-01-02T10:27:22.583Z,62.10
2023-01-02T10:29:53.155Z,62.10
2023-01-02T10:32:20.944Z,62.20
2023-01-02T10:34:58.650Z,62.30
2023-01-02T10:37:26.086Z,62.30
2023-01-02T10:39:52.677Z,62.50
2023-01-02T10:42:19.504Z,62.70
2023-01-02T10:44:46.477Z,63.00
2023-01-02T10:47:30.169Z,63.00
2023-01-02T10:49:56.820Z,62.70
2023-01-02T10:52:29.512Z,62.60
2023-01-02T10:54:59.996Z,62.50
2023-01-02T10:57:44.059Z,62.10
2023-01-02T11:00:25.674Z,62.30
2023-01-02T11:03:14.605Z,62.10
2023-01-02T11:05:46.281Z,61.80
2023-01-02T11:08:14.919Z,62.60
2023-01-02T11:10:41.900Z,61.70
2023-01-02T11:13:16.030Z,61.40
2023-01-02T11:15:50.457Z,61.10
2023-01-02T11:18:19.565Z,61.40
2023-01-02T11:20:50.795Z,61.10
2023-01-02T11:23:17.890Z,61.70
2023-01-02T11:25:44.571Z,61.20
2023-01-02T11:28:16.560Z,62.10
2023-01-02T11:30:44.987Z,61.80
2023-01-02T11:33:14.347Z,62.50
2023-01-02T11:35:47.211Z,61.90
2023-01-02T11:38:28.826Z,61.70
2023-01-02T11:40:59.042Z,62.20
2023-01-02T11:43:52.150Z,62.20
2023-01-02T11:46:22.015Z,63.20
2023-01-02T11:48:49.312Z,61.60
2023-01-02T11:51:17.783Z,62.40
2023-01-02T11:53:48.019Z,61.20
2023-01-02T11:56:21.002Z,61.90
2023-01-02T11:58:58.191Z,61.80
2023-01-02T12:01:32.359Z,61.50
2023-01-02T12:03:59.667Z,61.30
2023-01-02T12:06:35.061Z,62.40
2023-01-02T12:09:06.397Z,62.30
2023-01-02T12:11:52.074Z,62.20
2023-01-02T12:14:20.060Z,62.10
2023-01-02T12:17:00.143Z,62.30
2023-01-02T12:19:27.081Z,61.80
2023-01-02T12:21:53.615Z,61.90
2023-01-02T12:24:31.300Z,62.40
2023-01-02T12:26:57.944Z,62.20
2023-01-02T12:29:47.816Z,62.20
2023-01-02T12:32:17.243Z,62.10
2023-01-02T12:35:02.792Z,62.30
2023-01-02T12:37:35.675Z,62.00
2023-01-02T12:40:25.759Z,62.80
2023-01-02T12:42:52.315Z,63.10
2023-01-02T12:45:24.976Z,62.70
2023-01-02T12:48:03.985Z,62.70
2023-01-02T12:50:49.229Z,63.00
2023-01-02T12:53:25.278Z,63.00
2023-01-02T12:56:08.545Z,63.50
2023-01-02T12:58:49.466Z,62.10
2023-01-02T13:01:35.016Z,63.50
2023-01-02T13:04:04.481Z,63.40
2023-01-02T13:06:44.821Z,63.40
2023-01-02T13:09:33.484Z,63.00
2023-01-02T13:12:14.772Z,63.60
2023-01-02T13:14:41.324Z,63.50
2023-01-02T13:17:17.302Z,64.10
2023-01-02T13:19:46.137Z,64.00
2023-01-02T13:22:18.673Z,64.20
2023-01-02T13:24:45.461Z,63.20
2023-01-02T13:27:12.458Z,62.60
2023-01-02T13:29:43.361Z,62.50
2023-01-02T13:32:13.600Z,62.40
2023-01-02T13:34:51.630Z,62.10
2023-01-02T13:37:19.993Z,62.30
2023-01-02T13:39:48.555Z,62.20
2023-01-02T13:42:43.186Z,62.10
2023-01-02T13:45:12.310Z,62.50
2023-01-02T13:47:39.823Z,62.70
2023-01-02T13:50:09.549Z,63.70
2023-01-02T13:52:36.188Z,62.90
2023-01-02T13:55:11.049Z,62.80
2023-01-02T13:57:37.853Z,63.20
2023-01-02T14:00:04.509Z,63.80
2023-01-02T14:02:31.213Z,63.80
2023-01-02T14:04:57.990Z,63.90
2023-01-02T14:07:24.553Z,64.20
2023-01-02T14:10:02.598Z,64.20
2023-01-02T14:12:29.188Z,62.90
2023-01-02T14:14:55.769Z,63.70
2023-01-02T14:17:48.872Z,64.60
2023-01-02T14:20:18.449Z,64.90
2023-01-02T14:22:50.606Z,64.10
2023-01-02T14:25:17.575Z,64.00
2023-01-02T14:27:52.038Z,64.00
2023-01-02T14:30:22.652Z,64.30
2023-01-02T14:32:50.681Z,65.00
2023-01-02T14:35:17.210Z,64.70
2023-01-02T14:37:54.522Z,64.00
2023-01-02T14:40:21.132Z,64.30
2023-01-02T14:43:13.370Z,63.90
2023-01-02T14:46:03.063Z,64.10
2023-01-02T14:48:36.007Z,64.30
2023-01-02T14:51:04.752Z,65.60
2023-01-02T14:53:32.862Z,64.30
2023-01-02T14:56:02.757Z,64.50
2023-01-02T14:58:38.741Z,64.20
2023-01-02T15:01:05.905Z,64.80
2023-01-02T15:03:32.734Z,64.20
2023-01-02T15:06:02.704Z,64.30
2023-01-02T15:08:37.623Z,65.00
2023-01-02T15:11:33.080Z,64.80
2023-01-02T15:14:04.325Z,65.00
2023-01-02T15:16:34.589Z,64.90
2023-01-02T15:19:02.387Z,65.00
2023-01-02T15:21:29.619Z,64.30
2023-01-02T15:23:57.835Z,64.80
2023-01-02T15:26:33.135Z,64.30
2023-01-02T15:29:05.002Z,64.70
2023-01-02T15:31:31.768Z,65.00
2023-01-02T15:34:00.049Z,64.80
2023-01-02T15:36:35.405Z,64.70
2023-01-02T15:39:04.029Z,64.90
2023-01-02T15:41:30.628Z,64.60
2023-01-02T15:44:16.849Z,64.50
2023-01-02T15:46:44.008Z,65.10
2023-01-02T15:49:14.007Z,64.90
2023-01-02T15:51:41.957Z,64.30
2023-01-02T15:54:15.308Z,65.30
2023-01-02T15:56:41.978Z,65.10
2023-01-02T15:59:25.241Z,65.20
2023-01-02T16:01:51.934Z,64.50
2023-01-02T16:04:25.971Z,64.10
2023-01-02T16:06:53.060Z,64.40
2023-01-02T16:09:22.743Z,65.40
2023-01-02T16:11:50.516Z,64.70
2023-01-02T16:14:21.944Z,65.00
2023-01-02T16:16:48.653Z,65.20
2023-01-02T16:19:17.624Z,64.90
2023-01-02T16:21:44.527Z,65.60
2023-01-02T16:24:11.793Z,65.50
2023-01-02T16:26:40.945Z,64.90
2023-01-02T16:29:13.580Z,65.40
2023-01-02T16:31:50.468Z,65.20
2023-01-02T16:34:24.716Z,65.10
2023-01-02T16:37:08.486Z,65.50
2023-01-02T16:39:46.040Z,65.20
2023-01-02T16:42:31.459Z,65.40
2023-01-02T16:44:58.129Z,65.60
2023-01-02T16:47:29.165Z,65.60
2023-01-02T16:49:56.166Z,66.20
2023-01-02T16:52:22.841Z,65.90
2023-01-02T16:54:54.058Z,65.60
2023-01-02T16:57:22.333Z,65.60
2023-01-02T16:59:49.000Z,65.70
2023-01-02T17:02:15.680Z,65.80
2023-01-02T17:04:42.624Z,65.80
2023-01-02T17:07:09.770Z,65.90
2023-01-02T17:09:36.330Z,65.80
2023-01-02T17:12:03.776Z,66.00
2023-01-02T17:14:31.690Z,65.90
2023-01-02T17:16:58.774Z,66.10
2023-01-02T17:19:25.472Z,66.30
2023-01-02T17:21:52.075Z,66.40
2023-01-02T17:24:18.728Z,65.50
2023-01-02T17:26:45.418Z,65.60
2023-01-02T17:29:11.982Z,64.80
2023-01-02T17:31:38.685Z,64.10
2023-01-02T17:34:05.306Z,64.30
2023-01-02T17:36:32.084Z,64.50
2023-01-02T17:38:58.682Z,63.70
2023-01-02T17:41:25.367Z,64.40
2023-01-02T17:44:02.718Z,63.50
2023-01-02T17:49:17.564Z,63.90
2023-01-02T17:51:44.361Z,64.00
2023-01-02T17:54:11.035Z,64.20
2023-01-02T17:56:38.710Z,64.40
2023-01-02T17:59:05.602Z,64.20
2023-01-02T18:01:32.368Z,64.20
2023-01-02T18:03:59.014Z,64.40
2023-01-02T18:06:25.560Z,64.30
2023-01-02T18:08:54.573Z,64.50
2023-01-02T18:11:21.769Z,65.50
2023-01-02T18:13:50.075Z,65.30
2023-01-02T18:16:19.052Z,64.80
2023-01-02T18:18:45.792Z,64.90
2023-01-02T18:21:13.754Z,64.70
2023-01-02T18:23:40.920Z,64.90
2023-01-02T18:26:14.887Z,65.50
2023-01-02T18:28:49.972Z,65.60
2023-01-02T18:31:18.988Z,66.20
2023-01-02T18:33:45.848Z,66.10
2023-01-02T18:36:20.342Z,66.30
2023-01-02T18:38:49.690Z,66.10
2023-01-02T18:41:26.683Z,66.10
2023-01-02T18:44:19.789Z,66.70
2023-01-02T18:47:02.251Z,66.50
2023-01-02T18:49:35.236Z,66.40
2023-01-02T18:52:12.099Z,67.20
2023-01-02T18:54:43.708Z,67.50
2023-01-02T18:57:13.436Z,67.20
2023-01-02T18:59:42.237Z,67.20
2023-01-02T19:02:27.752Z,67.30
2023-01-02T19:04:55.316Z,67.60
2023-01-02T19:07:27.699Z,67.00
2023-01-02T19:10:15.583Z,66.80
2023-01-02T19:13:08.015Z,66.90
2023-01-02T19:15:43.731Z,68.60
2023-01-02T19:18:13.483Z,67.60
2023-01-02T19:20:43.752Z,67.70
2023-01-02T19:23:24.769Z,67.40
2023-01-02T19:25:52.134Z,67.40
2023-01-02T19:28:23.813Z,67.40
2023-01-02T19:30:50.411Z,68.20
2023-01-02T19:33:35.235Z,69.30
2023-01-02T19:36:03.066Z,67.80
2023-01-02T19:38:30.404Z,67.40
2023-01-02T19:40:58.521Z,67.50
2023-01-02T19:43:25.454Z,67.50
2023-01-02T19:45:52.923Z,67.20
2023-01-02T19:48:19.658Z,66.90
2023-01-02T19:50:46.257Z,67.50
2023-01-02T19:53:12.827Z,67.40
2023-01-02T19:55:39.399Z,67.20
2023-01-02T19:58:06.117Z,67.60
2023-01-02T20:00:32.674Z,68.40
2023-01-02T20:02:59.483Z,68.00
2023-01-02T20:05:28.713Z,68.00
2023-01-02T20:07:57.738Z,68.00
2023-01-02T20:10:24.302Z,67.50
2023-01-02T20:12:50.970Z,67.90
2023-01-02T20:15:19.537Z,68.50
2023-01-02T20:17:46.775Z,67.40
2023-01-02T20:20:15.090Z,67.50
2023-01-02T20:22:43.363Z,67.40
2023-01-02T20:25:11.166Z,68.40
2023-01-02T20:27:37.723Z,68.40
2023-01-02T20:30:04.649Z,68.40
2023-01-02T20:32:31.195Z,67.80
2023-01-02T20:34:57.909Z,68.00
2023-01-02T20:37:24.582Z,68.00
2023-01-02T20:39:51.889Z,67.80
2023-01-02T20:42:19.103Z,68.40
2023-01-02T20:44:45.913Z,67.80
2023-01-02T20:47:12.513Z,67.50
2023-01-02T20:49:39.919Z,69.10
2023-01-02T20:52:07.045Z,68.40
2023-01-02T20:54:33.975Z,68.60
2023-01-02T20:57:00.575Z,68.40
2023-01-02T20:59:27.263Z,68.20
2023-01-02T21:01:53.988Z,68.40
2023-01-02T21:04:25.606Z,68.60
2023-01-02T21:06:57.360Z,68.20
2023-01-02T21:09:24.057Z,68.40
2023-01-02T21:11:50.648Z,68.20
2023-01-02T21:14:17.272Z,68.70
2023-01-02T21:16:43.894Z,69.30
2023-01-02T21:19:10.534Z,68.60
2023-01-02T21:21:37.180Z,68.50
2023-01-02T21:24:03.876Z,68.20
2023-01-02T21:26:30.444Z,68.30
2023-01-02T21:28:57.026Z,68.60
2023-01-02T21:31:23.758Z,69.00
2023-01-02T21:33:50.454Z,68.70
2023-01-02T21:36:17.074Z,69.90
2023-01-02T21:38:43.950Z,68.70
2023-01-02T21:41:29.829Z,69.10
2023-01-02T21:43:56.521Z,68.60
2023-01-02T21:46:23.183Z,68.30
2023-01-02T21:48:49.957Z,68.30
2023-01-02T21:51:16.618Z,68.20
2023-01-02T21:53:43.216Z,69.90
2023-01-02T21:56:09.987Z,68.20
2023-01-02T21:58:36.592Z,68.00
2023-01-02T22:01:03.296Z,68.70
2023-01-02T22:03:30.103Z,68.20
2023-01-02T22:05:56.790Z,68.20
2023-01-02T22:08:23.404Z,68.40
2023-01-02T22:10:50.121Z,68.00
2023-01-02T22:13:16.720Z,68.10
2023-01-02T22:15:45.545Z,68.60
2023-01-02T22:18:12.431Z,68.30
2023-01-02T22:20:39.025Z,68.10
2023-01-02T22:23:05.589Z,68.30
2023-01-02T22:25:32.263Z,68.20
2023-01-02T22:27:59.042Z,68.40
2023-01-02T22:30:33.495Z,68.10
2023-01-02T22:33:01.482Z,68.00
2023-01-02T22:35:28.115Z,68.70
2023-01-02T22:37:55.301Z,68.00
2023-01-02T22:40:21.893Z,68.10
2023-01-02T22:43:03.795Z,67.80
2023-01-02T22:45:35.641Z,67.80
2023-01-02T22:48:04.342Z,68.10
2023-01-02T22:50:35.142Z,68.80
2023-01-02T22:53:01.799Z,69.10
2023-01-02T22:55:28.386Z,67.90
2023-01-02T22:57:54.963Z,67.90
2023-01-02T23:00:22.533Z,68.70
2023-01-02T23:02:49.452Z,68.10
2023-01-02T23:05:20.253Z,68.40
2023-01-02T23:07:49.443Z,67.70
2023-01-02T23:10:17.681Z,68.50
2023-01-02T23:12:46.162Z,68.40
2023-01-02T23:15:13.553Z,68.40
2023-01-02T23:17:58.825Z,67.90
2023-01-02T23:20:26.090Z,68.10
2023-01-02T23:22:52.916Z,67.90
2023-01-02T23:25:19.509Z,67.80
2023-01-02T23:27:46.058Z,68.00
2023-01-02T23:30:12.986Z,68.20
2023-01-02T23:32:39.578Z,67.60
2023-01-02T23:35:06.562Z,68.50
2023-01-02T23:37:33.141Z,69.00
2023-01-02T23:39:59.704Z,68.50
2023-01-02T23:42:26.285Z,68.20
2023-01-02T23:44:52.843Z,68.10
2023-01-02T23:47:19.738Z,67.90
2023-01-02T23:49:46.507Z,67.80
2023-01-02T23:52:13.136Z,67.90
2023-01-02T23:54:39.737Z,67.90
2023-01-02T23:57:06.323Z,67.80
2023-01-02T23:59:32.884Z,67.70
